sensor_id;sensor_type;location;lat;lon;timestamp;pressure;altitude;pressure_sealevel;temperature;humidity
19150;BME280;9707;49.158;8.632;2023-03-29T00:00:46;100763.91;;;19.13;32.41
19150;BME280;9707;49.158;8.632;2023-03-29T00:03:12;100763.91;;;19.13;32.45
19150;BME280;9707;49.158;8.632;2023-03-29T00:05:38;100765.75;;;19.12;32.45
19150;BME280;9707;49.158;8.632;2023-03-29T00:08:06;100776.66;;;19.11;32.57
19150;BME280;9707;49.158;8.632;2023-03-29T00:10:32;100768.53;;;19.11;32.77
19150;BME280;9707;49.158;8.632;2023-03-29T00:12:58;100779.25;;;19.12;32.70
19150;BME280;9707;49.158;8.632;2023-03-29T00:15:23;100774.78;;;19.11;32.75
19150;BME280;9707;49.158;8.632;2023-03-29T00:17:49;100779.13;;;19.14;33.11
19150;BME280;9707;49.158;8.632;2023-03-29T00:20:14;100771.91;;;19.14;33.04
19150;BME280;9707;49.158;8.632;2023-03-29T00:22:40;100779.81;;;19.17;33.10
19150;BME280;9707;49.158;8.632;2023-03-29T00:25:10;100776.13;;;19.18;33.23
19150;BME280;9707;49.158;8.632;2023-03-29T00:27:35;100762.41;;;19.21;33.23
19150;BME280;9707;49.158;8.632;2023-03-29T00:30:01;100765.03;;;19.23;33.21
19150;BME280;9707;49.158;8.632;2023-03-29T00:32:30;100753.25;;;19.24;33.14
19150;BME280;9707;49.158;8.632;2023-03-29T00:34:56;100746.78;;;19.26;33.05
19150;BME280;9707;49.158;8.632;2023-03-29T00:37:22;100750.16;;;19.30;33.28
19150;BME280;9707;49.158;8.632;2023-03-29T00:39:51;100730.28;;;19.31;33.17
19150;BME280;9707;49.158;8.632;2023-03-29T00:42:16;100735.56;;;19.32;32.75
19150;BME280;9707;49.158;8.632;2023-03-29T00:47:35;100737.59;;;19.29;33.11
19150;BME280;9707;49.158;8.632;2023-03-29T00:52:42;100721.28;;;19.30;33.51
19150;BME280;9707;49.158;8.632;2023-03-29T00:55:16;100721.19;;;19.32;33.49
19150;BME280;9707;49.158;8.632;2023-03-29T00:57:45;100718.28;;;19.35;33.27
19150;BME280;9707;49.158;8.632;2023-03-29T01:00:13;100717.31;;;19.36;33.39
19150;BME280;9707;49.158;8.632;2023-03-29T01:02:43;100708.22;;;19.37;33.40
19150;BME280;9707;49.158;8.632;2023-03-29T01:05:13;100699.16;;;19.38;32.81
19150;BME280;9707;49.158;8.632;2023-03-29T01:07:52;100688.44;;;19.36;32.66
19150;BME280;9707;49.158;8.632;2023-03-29T01:10:43;100676.91;;;19.34;33.18
19150;BME280;9707;49.158;8.632;2023-03-29T01:13:17;100682.28;;;19.34;33.63
19150;BME280;9707;49.158;8.632;2023-03-29T01:15:45;100671.41;;;19.36;33.34
19150;BME280;9707;49.158;8.632;2023-03-29T01:18:11;100670.41;;;19.37;33.67
19150;BME280;9707;49.158;8.632;2023-03-29T01:29:23;100652.38;;;19.37;33.80
19150;BME280;9707;49.158;8.632;2023-03-29T01:31:55;100651.41;;;19.38;33.89
19150;BME280;9707;49.158;8.632;2023-03-29T01:34:26;100644.91;;;19.41;33.94
19150;BME280;9707;49.158;8.632;2023-03-29T01:37:01;100642.13;;;19.42;33.85
19150;BME280;9707;49.158;8.632;2023-03-29T01:39:28;100640.25;;;19.43;33.89
19150;BME280;9707;49.158;8.632;2023-03-29T01:42:14;100630.22;;;19.45;33.60
19150;BME280;9707;49.158;8.632;2023-03-29T01:47:25;100622.13;;;19.45;34.00
19150;BME280;9707;49.158;8.632;2023-03-29T01:52:49;100617.47;;;19.47;33.93
19150;BME280;9707;49.158;8.632;2023-03-29T01:55:21;100621.88;;;19.48;33.95
19150;BME280;9707;49.158;8.632;2023-03-29T01:57:49;100624.47;;;19.49;34.14
19150;BME280;9707;49.158;8.632;2023-03-29T02:00:19;100633.47;;;19.50;33.74
19150;BME280;9707;49.158;8.632;2023-03-29T02:02:46;100632.47;;;19.51;33.88
19150;BME280;9707;49.158;8.632;2023-03-29T02:05:13;100633.31;;;19.51;33.98
19150;BME280;9707;49.158;8.632;2023-03-29T02:07:42;100618.97;;;19.51;33.97
19150;BME280;9707;49.158;8.632;2023-03-29T02:10:10;100626.09;;;19.52;34.03
19150;BME280;9707;49.158;8.632;2023-03-29T02:12:36;100619.72;;;19.53;34.21
19150;BME280;9707;49.158;8.632;2023-03-29T02:15:03;100625.91;;;19.55;34.05
19150;BME280;9707;49.158;8.632;2023-03-29T02:17:31;100613.31;;;19.54;33.95
19150;BME280;9707;49.158;8.632;2023-03-29T02:20:05;100612.38;;;19.55;33.91
19150;BME280;9707;49.158;8.632;2023-03-29T02:23:07;100618.72;;;19.54;33.64
19150;BME280;9707;49.158;8.632;2023-03-29T02:25:34;100618.00;;;19.52;32.85
19150;BME280;9707;49.158;8.632;2023-03-29T02:28:01;100620.16;;;19.47;32.76
19150;BME280;9707;49.158;8.632;2023-03-29T02:30:33;100615.72;;;19.46;33.11
19150;BME280;9707;49.158;8.632;2023-03-29T02:33:13;100599.84;;;19.41;33.54
19150;BME280;9707;49.158;8.632;2023-03-29T02:35:48;100602.53;;;19.41;33.95
19150;BME280;9707;49.158;8.632;2023-03-29T02:38:17;100586.31;;;19.41;34.40
19150;BME280;9707;49.158;8.632;2023-03-29T02:40:44;100596.06;;;19.44;34.43
19150;BME280;9707;49.158;8.632;2023-03-29T02:43:12;100593.16;;;19.47;34.31
19150;BME280;9707;49.158;8.632;2023-03-29T02:45:40;100594.03;;;19.47;33.68
19150;BME280;9707;49.158;8.632;2023-03-29T02:48:09;100588.72;;;19.46;33.31
19150;BME280;9707;49.158;8.632;2023-03-29T02:50:38;100585.25;;;19.44;33.65
19150;BME280;9707;49.158;8.632;2023-03-29T02:53:17;100589.91;;;19.42;33.06
19150;BME280;9707;49.158;8.632;2023-03-29T02:55:43;100592.81;;;19.39;33.17
19150;BME280;9707;49.158;8.632;2023-03-29T02:58:11;100593.06;;;19.36;33.14
19150;BME280;9707;49.158;8.632;2023-03-29T03:00:39;100589.56;;;19.34;33.78
19150;BME280;9707;49.158;8.632;2023-03-29T03:03:07;100585.94;;;19.35;34.47
19150;BME280;9707;49.158;8.632;2023-03-29T03:05:33;100591.34;;;19.35;33.46
19150;BME280;9707;49.158;8.632;2023-03-29T03:07:59;100577.94;;;19.33;33.40
19150;BME280;9707;49.158;8.632;2023-03-29T03:10:24;100591.53;;;19.32;33.22
19150;BME280;9707;49.158;8.632;2023-03-29T03:12:50;100598.91;;;19.30;33.59
19150;BME280;9707;49.158;8.632;2023-03-29T03:15:15;100587.22;;;19.29;33.74
19150;BME280;9707;49.158;8.632;2023-03-29T03:17:41;100580.94;;;19.29;33.25
19150;BME280;9707;49.158;8.632;2023-03-29T03:20:07;100578.47;;;19.26;33.42
19150;BME280;9707;49.158;8.632;2023-03-29T03:22:44;100584.84;;;19.25;33.55
19150;BME280;9707;49.158;8.632;2023-03-29T03:25:16;100586.69;;;19.24;33.70
19150;BME280;9707;49.158;8.632;2023-03-29T03:27:43;100581.28;;;19.24;33.49
19150;BME280;9707;49.158;8.632;2023-03-29T03:30:09;100592.19;;;19.23;33.30
19150;BME280;9707;49.158;8.632;2023-03-29T03:32:35;100587.75;;;19.22;33.40
19150;BME280;9707;49.158;8.632;2023-03-29T03:35:02;100590.47;;;19.22;34.13
19150;BME280;9707;49.158;8.632;2023-03-29T03:37:28;100596.75;;;19.22;33.41
19150;BME280;9707;49.158;8.632;2023-03-29T03:39:54;100588.72;;;19.21;33.34
19150;BME280;9707;49.158;8.632;2023-03-29T03:42:19;100587.00;;;19.20;33.91
19150;BME280;9707;49.158;8.632;2023-03-29T03:44:45;100578.75;;;19.21;33.63
19150;BME280;9707;49.158;8.632;2023-03-29T03:47:11;100591.41;;;19.21;33.93
19150;BME280;9707;49.158;8.632;2023-03-29T03:49:38;100586.00;;;19.21;33.48
19150;BME280;9707;49.158;8.632;2023-03-29T03:52:03;100588.81;;;19.19;33.33
19150;BME280;9707;49.158;8.632;2023-03-29T03:54:29;100585.22;;;19.19;33.45
19150;BME280;9707;49.158;8.632;2023-03-29T03:56:54;100591.72;;;19.16;33.43
19150;BME280;9707;49.158;8.632;2023-03-29T03:59:19;100591.84;;;19.15;33.54
19150;BME280;9707;49.158;8.632;2023-03-29T04:01:45;100587.41;;;19.14;33.94
19150;BME280;9707;49.158;8.632;2023-03-29T04:04:10;100595.41;;;19.15;33.56
19150;BME280;9707;49.158;8.632;2023-03-29T04:06:37;100587.41;;;19.14;33.33
19150;BME280;9707;49.158;8.632;2023-03-29T04:09:02;100582.00;;;19.14;33.31
19150;BME280;9707;49.158;8.632;2023-03-29T04:11:28;100584.94;;;19.11;33.40
19150;BME280;9707;49.158;8.632;2023-03-29T04:13:53;100583.06;;;19.11;33.70
19150;BME280;9707;49.158;8.632;2023-03-29T04:16:18;100583.06;;;19.11;33.95
19150;BME280;9707;49.158;8.632;2023-03-29T04:18:45;100584.81;;;19.12;34.13
19150;BME280;9707;49.158;8.632;2023-03-29T04:21:10;100582.13;;;19.12;33.58
19150;BME280;9707;49.158;8.632;2023-03-29T04:23:35;100579.44;;;19.12;33.50
19150;BME280;9707;49.158;8.632;2023-03-29T04:26:01;100576.81;;;19.11;33.62
19150;BME280;9707;49.158;8.632;2023-03-29T04:28:26;100581.34;;;19.10;33.74
19150;BME280;9707;49.158;8.632;2023-03-29T04:30:51;100582.44;;;19.08;33.49
19150;BME280;9707;49.158;8.632;2023-03-29T04:33:16;100587.84;;;19.08;33.95
19150;BME280;9707;49.158;8.632;2023-03-29T04:35:42;100583.31;;;19.08;33.74
19150;BME280;9707;49.158;8.632;2023-03-29T04:38:07;100583.22;;;19.10;33.57
19150;BME280;9707;49.158;8.632;2023-03-29T04:40:35;100588.72;;;19.08;33.55
19150;BME280;9707;49.158;8.632;2023-03-29T04:43:00;100577.13;;;19.06;33.49
19150;BME280;9707;49.158;8.632;2023-03-29T04:45:26;100589.78;;;19.06;33.51
19150;BME280;9707;49.158;8.632;2023-03-29T04:47:55;100580.81;;;19.05;33.88
19150;BME280;9707;49.158;8.632;2023-03-29T04:50:20;100580.72;;;19.07;33.98
19150;BME280;9707;49.158;8.632;2023-03-29T04:52:46;100583.22;;;19.10;33.55
19150;BME280;9707;49.158;8.632;2023-03-29T04:55:11;100590.63;;;19.06;33.39
19150;BME280;9707;49.158;8.632;2023-03-29T04:57:37;100604.25;;;19.05;33.58
19150;BME280;9707;49.158;8.632;2023-03-29T05:00:03;100600.78;;;19.03;33.73
19150;BME280;9707;49.158;8.632;2023-03-29T05:02:38;100599.06;;;19.02;33.78
19150;BME280;9707;49.158;8.632;2023-03-29T05:05:03;100595.38;;;19.03;33.67
19150;BME280;9707;49.158;8.632;2023-03-29T05:07:29;100598.22;;;19.01;33.81
19150;BME280;9707;49.158;8.632;2023-03-29T05:09:54;100600.16;;;18.99;33.41
19150;BME280;9707;49.158;8.632;2023-03-29T05:12:20;100600.47;;;18.95;33.25
19150;BME280;9707;49.158;8.632;2023-03-29T05:14:45;100599.94;;;18.90;33.37
19150;BME280;9707;49.158;8.632;2023-03-29T05:17:10;100597.53;;;18.85;33.48
19150;BME280;9707;49.158;8.632;2023-03-29T05:19:36;100598.84;;;18.80;33.54
19150;BME280;9707;49.158;8.632;2023-03-29T05:22:02;100593.66;;;18.77;33.70
19150;BME280;9707;49.158;8.632;2023-03-29T05:24:27;100599.28;;;18.74;33.77
19150;BME280;9707;49.158;8.632;2023-03-29T05:26:52;100594.06;;;18.71;33.71
19150;BME280;9707;49.158;8.632;2023-03-29T05:29:18;100603.34;;;18.67;33.87
19150;BME280;9707;49.158;8.632;2023-03-29T05:31:43;100607.00;;;18.66;33.83
19150;BME280;9707;49.158;8.632;2023-03-29T05:34:09;100595.47;;;18.64;34.11
19150;BME280;9707;49.158;8.632;2023-03-29T05:36:34;100599.25;;;18.61;34.13
19150;BME280;9707;49.158;8.632;2023-03-29T05:38:59;100595.78;;;18.59;33.94
19150;BME280;9707;49.158;8.632;2023-03-29T05:41:25;100600.31;;;18.59;33.94
19150;BME280;9707;49.158;8.632;2023-03-29T05:43:51;100603.13;;;18.57;33.97
19150;BME280;9707;49.158;8.632;2023-03-29T05:46:16;100602.25;;;18.57;33.87
19150;BME280;9707;49.158;8.632;2023-03-29T05:48:42;100612.19;;;18.56;33.83
19150;BME280;9707;49.158;8.632;2023-03-29T05:51:07;100607.88;;;18.54;34.38
19150;BME280;9707;49.158;8.632;2023-03-29T05:53:33;100609.34;;;18.58;34.55
19150;BME280;9707;49.158;8.632;2023-03-29T05:55:59;100599.25;;;18.61;34.23
19150;BME280;9707;49.158;8.632;2023-03-29T05:58:24;100608.97;;;18.64;34.63
19150;BME280;9707;49.158;8.632;2023-03-29T06:00:51;100599.47;;;18.71;34.93
19150;BME280;9707;49.158;8.632;2023-03-29T06:03:18;100603.78;;;18.73;33.97
19150;BME280;9707;49.158;8.632;2023-03-29T06:05:47;100613.72;;;18.73;34.16
19150;BME280;9707;49.158;8.632;2023-03-29T06:08:14;100610.91;;;18.74;33.73
19150;BME280;9707;49.158;8.632;2023-03-29T06:10:40;100614.69;;;18.72;33.88
19150;BME280;9707;49.158;8.632;2023-03-29T06:13:05;100617.38;;;18.72;34.22
19150;BME280;9707;49.158;8.632;2023-03-29T06:15:31;100613.59;;;18.74;34.54
19150;BME280;9707;49.158;8.632;2023-03-29T06:17:59;100616.97;;;18.78;34.18
19150;BME280;9707;49.158;8.632;2023-03-29T06:20:24;100611.47;;;18.79;34.16
19150;BME280;9707;49.158;8.632;2023-03-29T06:22:50;100607.69;;;18.82;34.30
19150;BME280;9707;49.158;8.632;2023-03-29T06:25:16;100615.69;;;18.83;34.34
19150;BME280;9707;49.158;8.632;2023-03-29T06:27:43;100611.03;;;18.85;34.20
19150;BME280;9707;49.158;8.632;2023-03-29T06:30:11;100614.50;;;18.87;34.31
19150;BME280;9707;49.158;8.632;2023-03-29T06:32:36;100612.66;;;18.88;34.00
19150;BME280;9707;49.158;8.632;2023-03-29T06:35:02;100609.84;;;18.89;34.40
19150;BME280;9707;49.158;8.632;2023-03-29T06:37:29;100609.56;;;18.94;34.69
19150;BME280;9707;49.158;8.632;2023-03-29T06:39:56;100611.19;;;18.96;34.28
19150;BME280;9707;49.158;8.632;2023-03-29T06:42:22;100605.66;;;18.98;34.05
19150;BME280;9707;49.158;8.632;2023-03-29T06:44:47;100608.25;;;18.99;34.38
19150;BME280;9707;49.158;8.632;2023-03-29T06:47:14;100613.44;;;19.02;34.17
19150;BME280;9707;49.158;8.632;2023-03-29T06:49:39;100613.31;;;19.04;34.04
19150;BME280;9707;49.158;8.632;2023-03-29T06:52:05;100620.47;;;19.05;34.00
19150;BME280;9707;49.158;8.632;2023-03-29T06:54:30;100624.00;;;19.05;33.89
19150;BME280;9707;49.158;8.632;2023-03-29T06:56:56;100624.78;;;19.07;34.21
19150;BME280;9707;49.158;8.632;2023-03-29T06:59:21;100627.34;;;19.09;34.33
19150;BME280;9707;49.158;8.632;2023-03-29T07:01:47;100625.44;;;19.11;34.23
19150;BME280;9707;49.158;8.632;2023-03-29T07:04:12;100627.16;;;19.12;34.10
19150;BME280;9707;49.158;8.632;2023-03-29T07:06:37;100632.34;;;19.15;34.26
19150;BME280;9707;49.158;8.632;2023-03-29T07:09:04;100631.38;;;19.16;34.28
19150;BME280;9707;49.158;8.632;2023-03-29T07:11:32;100632.13;;;19.18;34.06
19150;BME280;9707;49.158;8.632;2023-03-29T07:14:00;100633.84;;;19.19;34.21
19150;BME280;9707;49.158;8.632;2023-03-29T07:16:27;100641.78;;;19.22;34.30
19150;BME280;9707;49.158;8.632;2023-03-29T07:18:52;100636.28;;;19.23;34.14
19150;BME280;9707;49.158;8.632;2023-03-29T07:21:18;100644.28;;;19.25;34.32
19150;BME280;9707;49.158;8.632;2023-03-29T07:23:44;100646.00;;;19.26;33.98
19150;BME280;9707;49.158;8.632;2023-03-29T07:26:09;100653.13;;;19.27;33.54
19150;BME280;9707;49.158;8.632;2023-03-29T07:28:36;100646.00;;;19.26;33.74
19150;BME280;9707;49.158;8.632;2023-03-29T07:31:08;100644.28;;;19.25;33.68
19150;BME280;9707;49.158;8.632;2023-03-29T07:33:35;100641.56;;;19.25;33.90
19150;BME280;9707;49.158;8.632;2023-03-29T07:36:01;100638.88;;;19.25;34.04
19150;BME280;9707;49.158;8.632;2023-03-29T07:38:27;100637.91;;;19.26;34.03
19150;BME280;9707;49.158;8.632;2023-03-29T07:40:53;100649.44;;;19.28;34.01
19150;BME280;9707;49.158;8.632;2023-03-29T07:43:19;100652.03;;;19.29;33.98
19150;BME280;9707;49.158;8.632;2023-03-29T07:45:44;100649.25;;;19.31;34.10
19150;BME280;9707;49.158;8.632;2023-03-29T07:48:11;100650.97;;;19.32;34.10
19150;BME280;9707;49.158;8.632;2023-03-29T07:50:37;100647.28;;;19.33;33.98
19150;BME280;9707;49.158;8.632;2023-03-29T07:53:02;100648.16;;;19.33;34.10
19150;BME280;9707;49.158;8.632;2023-03-29T07:55:27;100649.97;;;19.33;34.18
19150;BME280;9707;49.158;8.632;2023-03-29T07:57:53;100650.75;;;19.35;34.17
19150;BME280;9707;49.158;8.632;2023-03-29T08:00:19;100652.47;;;19.36;34.19
19150;BME280;9707;49.158;8.632;2023-03-29T08:02:46;100655.94;;;19.38;33.89
19150;BME280;9707;49.158;8.632;2023-03-29T08:05:14;100653.13;;;19.39;34.32
19150;BME280;9707;49.158;8.632;2023-03-29T08:07:43;100648.38;;;19.43;33.90
19150;BME280;9707;49.158;8.632;2023-03-29T08:10:11;100642.97;;;19.43;33.77
19150;BME280;9707;49.158;8.632;2023-03-29T08:12:38;100653.75;;;19.43;33.55
19150;BME280;9707;49.158;8.632;2023-03-29T08:15:04;100644.91;;;19.41;33.61
19150;BME280;9707;49.158;8.632;2023-03-29T08:17:30;100642.13;;;19.42;33.80
19150;BME280;9707;49.158;8.632;2023-03-29T08:19:55;100634.84;;;19.43;34.09
19150;BME280;9707;49.158;8.632;2023-03-29T08:22:21;100650.09;;;19.44;33.99
19150;BME280;9707;49.158;8.632;2023-03-29T08:24:46;100653.56;;;19.46;33.86
19150;BME280;9707;49.158;8.632;2023-03-29T08:27:12;100644.47;;;19.47;34.03
19150;BME280;9707;49.158;8.632;2023-03-29T08:29:37;100655.19;;;19.48;34.07
19150;BME280;9707;49.158;8.632;2023-03-29T08:32:03;100649.69;;;19.50;33.89
19150;BME280;9707;49.158;8.632;2023-03-29T08:34:28;100646.00;;;19.51;34.16
19150;BME280;9707;49.158;8.632;2023-03-29T08:36:56;100638.63;;;19.53;33.91
19150;BME280;9707;49.158;8.632;2023-03-29T08:39:21;100631.28;;;19.55;33.66
19150;BME280;9707;49.158;8.632;2023-03-29T08:42:01;100628.59;;;19.55;33.71
19150;BME280;9707;49.158;8.632;2023-03-29T08:47:35;100625.91;;;19.55;33.83
19150;BME280;9707;49.158;8.632;2023-03-29T08:50:05;100628.47;;;19.56;33.82
19150;BME280;9707;49.158;8.632;2023-03-29T08:52:37;100633.66;;;19.59;33.89
19150;BME280;9707;49.158;8.632;2023-03-29T08:55:10;100635.28;;;19.62;33.75
19150;BME280;9707;49.158;8.632;2023-03-29T08:57:46;100632.38;;;19.65;33.76
19150;BME280;9707;49.158;8.632;2023-03-29T09:00:20;100625.97;;;19.66;33.54
19150;BME280;9707;49.158;8.632;2023-03-29T09:02:49;100628.44;;;19.69;33.47
19150;BME280;9707;49.158;8.632;2023-03-29T09:05:24;100629.22;;;19.71;33.61
19150;BME280;9707;49.158;8.632;2023-03-29T09:07:51;100625.41;;;19.73;33.69
19150;BME280;9707;49.158;8.632;2023-03-29T09:10:20;100620.75;;;19.75;33.87
19150;BME280;9707;49.158;8.632;2023-03-29T09:13:09;100623.25;;;19.78;33.42
19150;BME280;9707;49.158;8.632;2023-03-29T09:15:53;100623.13;;;19.80;33.56
19150;BME280;9707;49.158;8.632;2023-03-29T09:18:36;100622.91;;;19.83;33.30
19150;BME280;9707;49.158;8.632;2023-03-29T09:21:16;100623.63;;;19.85;33.46
19150;BME280;9707;49.158;8.632;2023-03-29T09:24:09;100622.81;;;19.84;33.50
19150;BME280;9707;49.158;8.632;2023-03-29T09:26:49;100620.84;;;19.86;33.57
19150;BME280;9707;49.158;8.632;2023-03-29T09:31:46;100619.44;;;19.93;33.36
19150;BME280;9707;49.158;8.632;2023-03-29T09:34:15;100627.28;;;19.96;33.56
19150;BME280;9707;49.158;8.632;2023-03-29T09:36:53;100614.41;;;20.00;33.67
19150;BME280;9707;49.158;8.632;2023-03-29T09:39:19;100614.09;;;20.04;33.68
19150;BME280;9707;49.158;8.632;2023-03-29T09:44:23;100601.97;;;20.10;33.77
19150;BME280;9707;49.158;8.632;2023-03-29T09:46:53;100608.03;;;20.13;33.85
19150;BME280;9707;49.158;8.632;2023-03-29T09:49:23;100603.25;;;20.17;33.41
19150;BME280;9707;49.158;8.632;2023-03-29T09:51:50;100604.88;;;20.19;33.56
19150;BME280;9707;49.158;8.632;2023-03-29T09:54:19;100604.75;;;20.21;33.20
19150;BME280;9707;49.158;8.632;2023-03-29T09:56:44;100606.47;;;20.22;32.49
19150;BME280;9707;49.158;8.632;2023-03-29T09:59:11;100597.38;;;20.23;32.22
19150;BME280;9707;49.158;8.632;2023-03-29T10:01:41;100597.28;;;20.24;31.88
19150;BME280;9707;49.158;8.632;2023-03-29T10:04:09;100593.81;;;20.22;32.02
19150;BME280;9707;49.158;8.632;2023-03-29T10:06:39;100603.53;;;20.25;31.83
19150;BME280;9707;49.158;8.632;2023-03-29T10:09:18;100608.72;;;20.28;31.47
19150;BME280;9707;49.158;8.632;2023-03-29T10:11:50;100594.31;;;20.27;31.84
19150;BME280;9707;49.158;8.632;2023-03-29T10:14:19;100595.94;;;20.30;31.58
19150;BME280;9707;49.158;8.632;2023-03-29T10:16:53;100590.31;;;20.33;31.42
19150;BME280;9707;49.158;8.632;2023-03-29T10:19:22;100585.63;;;20.35;30.96
19150;BME280;9707;49.158;8.632;2023-03-29T10:21:49;100587.50;;;20.34;30.96
19150;BME280;9707;49.158;8.632;2023-03-29T10:24:20;100581.19;;;20.34;31.29
19150;BME280;9707;49.158;8.632;2023-03-29T10:26:46;100570.25;;;20.35;30.69
19150;BME280;9707;49.158;8.632;2023-03-29T10:29:13;100571.00;;;20.37;30.94
19150;BME280;9707;49.158;8.632;2023-03-29T10:31:39;100569.91;;;20.40;31.16
19150;BME280;9707;49.158;8.632;2023-03-29T10:34:09;100564.28;;;20.43;30.67
19150;BME280;9707;49.158;8.632;2023-03-29T10:36:39;100565.00;;;20.45;30.82
19150;BME280;9707;49.158;8.632;2023-03-29T10:39:06;100558.50;;;20.47;31.17
19150;BME280;9707;49.158;8.632;2023-03-29T10:41:34;100550.03;;;20.52;31.13
19150;BME280;9707;49.158;8.632;2023-03-29T10:44:00;100548.78;;;20.56;31.26
19150;BME280;9707;49.158;8.632;2023-03-29T10:46:31;100537.75;;;20.59;30.60
19150;BME280;9707;49.158;8.632;2023-03-29T10:49:03;100536.75;;;20.60;30.30
19150;BME280;9707;49.158;8.632;2023-03-29T10:51:31;100540.22;;;20.62;30.41
19150;BME280;9707;49.158;8.632;2023-03-29T10:53:57;100537.28;;;20.65;30.78
19150;BME280;9707;49.158;8.632;2023-03-29T10:56:31;100531.63;;;20.68;30.81
19150;BME280;9707;49.158;8.632;2023-03-29T10:59:30;100535.81;;;20.72;30.63
19150;BME280;9707;49.158;8.632;2023-03-29T11:05:09;100535.34;;;20.78;30.29
19150;BME280;9707;49.158;8.632;2023-03-29T11:13:18;100513.81;;;20.76;29.83
19150;BME280;9707;49.158;8.632;2023-03-29T11:16:07;100514.69;;;20.77;29.85
19150;BME280;9707;49.158;8.632;2023-03-29T11:21:53;100512.31;;;20.83;30.30
19150;BME280;9707;49.158;8.632;2023-03-29T11:24:36;100514.91;;;20.85;30.39
19150;BME280;9707;49.158;8.632;2023-03-29T11:27:25;100512.97;;;20.87;29.34
19150;BME280;9707;49.158;8.632;2023-03-29T11:38:11;100514.81;;;20.86;29.06
19150;BME280;9707;49.158;8.632;2023-03-29T11:43:19;100514.47;;;20.91;29.10
19150;BME280;9707;49.158;8.632;2023-03-29T11:45:57;100509.81;;;20.93;29.18
19150;BME280;9707;49.158;8.632;2023-03-29T11:48:36;100515.94;;;20.95;29.36
19150;BME280;9707;49.158;8.632;2023-03-29T11:51:19;100515.72;;;20.98;29.23
19150;BME280;9707;49.158;8.632;2023-03-29T11:54:08;100509.31;;;20.99;29.16
19150;BME280;9707;49.158;8.632;2023-03-29T11:56:51;100502.91;;;21.00;29.11
19150;BME280;9707;49.158;8.632;2023-03-29T11:59:36;100509.09;;;21.02;29.17
19150;BME280;9707;49.158;8.632;2023-03-29T12:04:51;100497.00;;;21.06;29.03
19150;BME280;9707;49.158;8.632;2023-03-29T12:07:19;100492.44;;;21.06;28.76
19150;BME280;9707;49.158;8.632;2023-03-29T12:09:52;100484.22;;;21.08;28.77
19150;BME280;9707;49.158;8.632;2023-03-29T12:12:25;100493.06;;;21.10;28.77
19150;BME280;9707;49.158;8.632;2023-03-29T12:17:36;100487.13;;;21.16;28.77
19150;BME280;9707;49.158;8.632;2023-03-29T12:20:18;100487.91;;;21.18;28.51
19150;BME280;9707;49.158;8.632;2023-03-29T12:22:46;100481.50;;;21.19;28.47
19150;BME280;9707;49.158;8.632;2023-03-29T12:25:15;100476.78;;;21.21;28.00
19150;BME280;9707;49.158;8.632;2023-03-29T12:33:20;100478.16;;;21.26;28.44
19150;BME280;9707;49.158;8.632;2023-03-29T12:36:11;100486.16;;;21.28;27.97
19150;BME280;9707;49.158;8.632;2023-03-29T12:38:39;100476.94;;;21.30;28.08
19150;BME280;9707;49.158;8.632;2023-03-29T12:41:14;100483.94;;;21.33;28.28
19150;BME280;9707;49.158;8.632;2023-03-29T12:43:41;100495.50;;;21.35;28.41
19150;BME280;9707;49.158;8.632;2023-03-29T12:46:26;100476.31;;;21.38;28.77
19150;BME280;9707;49.158;8.632;2023-03-29T12:48:57;100487.88;;;21.40;28.38
19150;BME280;9707;49.158;8.632;2023-03-29T12:51:31;100480.47;;;21.42;28.05
19150;BME280;9707;49.158;8.632;2023-03-29T12:54:13;100485.66;;;21.45;28.46
19150;BME280;9707;49.158;8.632;2023-03-29T12:59:43;100482.31;;;21.52;28.71
19150;BME280;9707;49.158;8.632;2023-03-29T13:04:51;100459.28;;;21.58;28.89
19150;BME280;9707;49.158;8.632;2023-03-29T13:09:56;100457.75;;;21.65;28.88
19150;BME280;9707;49.158;8.632;2023-03-29T13:12:35;100457.50;;;21.68;29.46
19150;BME280;9707;49.158;8.632;2023-03-29T13:17:51;100459.63;;;21.75;29.90
19150;BME280;9707;49.158;8.632;2023-03-29T13:23:32;100460.09;;;21.80;29.63
19150;BME280;9707;49.158;8.632;2023-03-29T13:26:22;100464.53;;;21.81;29.93
19150;BME280;9707;49.158;8.632;2023-03-29T13:34:46;100475.97;;;21.85;30.03
19150;BME280;9707;49.158;8.632;2023-03-29T13:37:27;100474.84;;;21.87;29.78
19150;BME280;9707;49.158;8.632;2023-03-29T13:39:56;100472.75;;;21.91;29.68
19150;BME280;9707;49.158;8.632;2023-03-29T13:45:28;100468.78;;;21.95;29.61
19150;BME280;9707;49.158;8.632;2023-03-29T13:48:01;100467.78;;;21.96;30.00
19150;BME280;9707;49.158;8.632;2023-03-29T13:50:36;100465.78;;;21.98;30.53
19150;BME280;9707;49.158;8.632;2023-03-29T13:53:11;100459.25;;;22.00;30.72
19150;BME280;9707;49.158;8.632;2023-03-29T13:55:46;100448.41;;;22.00;31.06
19150;BME280;9707;49.158;8.632;2023-03-29T13:58:27;100447.28;;;22.03;31.15
19150;BME280;9707;49.158;8.632;2023-03-29T14:01:00;100450.75;;;22.05;31.56
19150;BME280;9707;49.158;8.632;2023-03-29T14:03:26;100452.47;;;22.06;31.77
19150;BME280;9707;49.158;8.632;2023-03-29T14:05:58;100447.91;;;22.06;31.93
19150;BME280;9707;49.158;8.632;2023-03-29T14:08:32;100450.47;;;22.08;31.82
19150;BME280;9707;49.158;8.632;2023-03-29T14:11:02;100443.31;;;22.07;31.81
19150;BME280;9707;49.158;8.632;2023-03-29T14:13:28;100446.03;;;22.07;31.71
19150;BME280;9707;49.158;8.632;2023-03-29T14:18:32;100440.47;;;22.08;31.63
19150;BME280;9707;49.158;8.632;2023-03-29T14:21:00;100433.34;;;22.07;31.79
19150;BME280;9707;49.158;8.632;2023-03-29T14:23:31;100413.47;;;22.07;31.71
19150;BME280;9707;49.158;8.632;2023-03-29T14:26:19;100419.66;;;22.09;31.60
19150;BME280;9707;49.158;8.632;2023-03-29T14:28:54;100416.19;;;22.07;31.54
19150;BME280;9707;49.158;8.632;2023-03-29T14:31:30;100425.81;;;22.11;31.54
19150;BME280;9707;49.158;8.632;2023-03-29T14:34:02;100412.22;;;22.11;31.44
19150;BME280;9707;49.158;8.632;2023-03-29T14:36:30;100406.09;;;22.09;31.62
19150;BME280;9707;49.158;8.632;2023-03-29T14:39:15;100410.78;;;22.07;32.01